Alakanuk, AK (99554)

10:37 AM AKDT on September 17, 2014 (GMT -0800)
Emmonak | Change Station
CLOSE
Current Station
Airport
Location: Emmonak,
Elevation: 13 ft
Nearby Weather Stations

Elev 13 ft 62.79 °N, 164.49 °W | Updated 21 minutes ago

Overcast
Overcast
50 °F
Feels Like 50 °F
N
6
Wind Variable Wind from North

Today
High -- | Low -- °F
--% Chance of Precip.
Yesterday
High -- | Low -- °F
Precip. -- in
8:29 AM 9:14 PM
Waning Crescent, 34% visible
Pressure 29.35 in
Visibility 10.0 miles
Clouds Overcast 6000 ft
Dew Point 45 °F
Humidity 82%
Rainfall 0.00 in
Snow Depth 5 in , 136 in , 0 in
UV 0 out of 12
Pollen Not available.
Air Quality Not available.
Flu Activity Not available.
METAR PAEM 171816Z AUTO 35005KT 10SM OVC060 10/07 A2935 RMK AO1

More Conditions Fewer Conditions

Pressure 29.35 in
Visibility 10.0 miles
Clouds Overcast 6000 ft
Dew Point 45 °F
Humidity 82%
Rainfall 0.00 in
Snow Depth 5 in , 136 in , 0 in
UV 0 out of 12
Pollen Not available.
Air Quality Not available.
Flu Activity Not available.
METAR PAEM 171816Z AUTO 35005KT 10SM OVC060 10/07 A2935 RMK AO1

More Conditions Fewer Conditions

10-Day Weather Forecast

Almanac

Astronomy

Sep. 17, 2014 Rise Set
Actual Time 8:29 AM AKDT 9:14 PM AKDT
Civil Twilight 7:43 AM AKDT 10:00 PM AKDT
Nautical Twilight 6:45 AM AKDT 10:57 PM AKDT
Astronomical Twilight 5:39 AM AKDT 12:02 AM AKDT
Moon 1:16 AM AKDT 6:50 PM AKDT
Length of Visible Light 14h 17m
Length of Day
12h 45m
Tomorrow will be 6m 2s shorter.
Waning Crescent, 34% of the Moon is Illuminated
Today
Waning Crescent
Sep 24
New
Oct 1
First Quarter
Oct 8
Full
Oct 15
Last Quarter

Today's Extremes

State Highs State Lows

Community

WunderPhotos

Upload Photos

1,754,127 photos uploaded!

WunderBlogs® & News

Nearby

Snow Depth

Station Depth Elevation
Rocky Point 5 in 500 ft
Nuka Glacier 136 in 1250 ft
Eagle Summit 0 in 3650 ft
Coldfoot 0 in 1040 ft
Upper Chena 1 in 2850 ft

Earthquake Activity

City Distance Mag. Time & Date
No recent earthquake activity has been reported nearby.
Minimum magnitude displayed is 2.5.

Coastal Water Temperatures

Place Temperature
No Stations Reporting

Nearby Weather Stations